Alkor — DBND — position and weather

sailwx.info

Track history (hours):
 
Tides and Currents Weather Stations Pressure Air Temp Water Temp Dewpoint Dewpoint Depression Visibility Wind Speed Wind Dir Waves Ship Positions

Oceanographic research ship Alkor (Germany)

Ship's website: http://www.briese.de/

Detailed information on ship capabilities available from University of Delaware's Ocean Information Center.

Last reported at 2018-Sep-21 01:30 UTC. Time now 2018-Sep-21 01:49 UTC.
Position N 54°38' E 010°06'.

Length 55 m; draft 4.2 m.

Type: Ship. MMSI: 211216512.

Date/timePositionNaut miles runAvg speedWind from/ knotsBaromVisibWave heightAir tempDewpointWater temp
2018-Sep-21 01:30N 54°38' E 010°06'2 3.9
2018-Sep-21 01:03N 54°39' E 010°04'0 6.0
2018-Sep-21 01:00N 54°39' E 010°03'3207.5
2018-Sep-21 01:00N 54°36' E 010°06'2 4.1 180 / 111005.5 18.4 17.2
2018-Sep-21 00:30N 54°35' E 010°03'3 7.0
2018-Sep-21 00:03N 54°32' E 010°02'110.0
2018-Sep-21 00:00N 54°31' E 010°02'2126.3
2018-Sep-21 00:00N 54°30' E 010°00'510.1 170 / 181006.6 18.9 17.3
2018-Sep-20 23:30N 54°32' E 010°08'3 7.1
2018-Sep-20 23:03N 54°34' E 010°11'0 9.7
2018-Sep-20 23:00N 54°35' E 010°11'186.9
2018-Sep-20 23:00N 54°36' E 010°12'4 7.3 160 / 181007.7 18.4 17.3
2018-Sep-20 22:30N 54°40' E 010°11'3 7.6
2018-Sep-20 22:03N 54°43' E 010°11'0 0.2
2018-Sep-20 22:00N 54°43' E 010°11'177.5
2018-Sep-20 22:00N 54°42' E 010°12'2 4.0 170 / 171008.6 18.5 17.4
2018-Sep-20 21:30N 54°41' E 010°10'5 9.9
2018-Sep-20 21:03N 54°36' E 010°10'0 9.9
2018-Sep-20 21:00N 54°36' E 010°10'194.8
2018-Sep-20 21:00N 54°36' E 010°12'511.2 160 / 121009.9 18.2 17.3
2018-Sep-20 20:30N 54°31' E 010°10'2 3.3
2018-Sep-20 20:03N 54°32' E 010°08'010.3
2018-Sep-20 20:00N 54°33' E 010°08'3196.6
2018-Sep-20 20:00N 54°30' E 010°06'815.6 170 / 111010.6 19.5 17.3
2018-Sep-20 19:30N 54°37' E 010°08'4 9.8
2018-Sep-20 19:03N 54°42' E 010°08'123.7
2018-Sep-20 19:00N 54°42' E 010°06'258.1 200 / 91011.0 18.9 17.4
2018-Sep-20 18:58N 54°43' E 010°08'3 7.0
2018-Sep-20 18:30N 54°40' E 010°07'4 9.8
2018-Sep-20 18:03N 54°35' E 010°07'110.1
2018-Sep-20 18:00N 54°35' E 010°07'1153.0
2018-Sep-20 18:00N 54°36' E 010°06'612.8 250 / 121011.4 19.9 17.4
2018-Sep-20 17:30N 54°30' E 010°07'3 6.7
2018-Sep-20 17:03N 54°32' E 010°04'0 8.3
2018-Sep-20 17:00N 54°33' E 010°04'3386.7
2018-Sep-20 17:00N 54°36' E 010°06'3 6.3 240 / 171011.8 20.5 17.4
2018-Sep-20 16:30N 54°33' E 010°06'0 0.1
2018-Sep-20 16:03N 54°33' E 010°06'0 0.4
2018-Sep-20 16:00N 54°33' E 010°07'33681.5
2018-Sep-20 16:00N 54°36' E 010°06'3 6.4 220 / 161012.0 21.0 17.4
2018-Sep-20 15:30N 54°33' E 010°06'0 0.2
2018-Sep-20 15:03N 54°33' E 010°06'0 0.2
2018-Sep-20 15:00N 54°33' E 010°06'3368.7
2018-Sep-20 15:00N 54°36' E 010°06'3 6.6 230 / 151012.3 20.7 17.4
2018-Sep-20 14:30N 54°33' E 010°07'0 0.1
2018-Sep-20 14:00N 54°33' E 010°07'3268.4
2018-Sep-20 14:00N 54°36' E 010°06'1 1.1 230 / 171012.4 20.2 17.3
2018-Sep-20 13:30N 54°37' E 010°06'1 1.3
2018-Sep-20 13:03N 54°37' E 010°05'110.5
2018-Sep-20 13:00N 54°36' E 010°05'041.4
2018-Sep-20 13:00N 54°36' E 010°06'5 9.9 230 / 191013.0 20.2 17.3
2018-Sep-20 12:30N 54°31' E 010°05'1 1.6
2018-Sep-20 12:03N 54°31' E 010°04'110.1
2018-Sep-20 12:00N 54°31' E 010°04'2126.4
2018-Sep-20 12:00N 54°30' E 010°06'612.1 220 / 221013.0 19.9 17.3
2018-Sep-20 11:30N 54°36' E 010°04'611.5
2018-Sep-20 11:00N 54°30' E 010°06'3217.5 230 / 181013.3 19.4 17.3
2018-Sep-20 10:59N 54°32' E 010°03'1 2.4
2018-Sep-20 10:30N 54°32' E 010°05'1 2.4
2018-Sep-20 10:03N 54°33' E 010°07'0 0.3
2018-Sep-20 10:00N 54°33' E 010°07'3215.1
2018-Sep-20 10:00N 54°36' E 010°06'613.3 220 / 191013.7 19.2 17.3
2018-Sep-20 09:30N 54°30' E 010°07'4 9.6
2018-Sep-20 09:03N 54°34' E 010°08'010.0
2018-Sep-20 09:00N 54°34' E 010°08'2138.5
2018-Sep-20 09:00N 54°36' E 010°06'3 5.5 220 / 181013.8 18.4 17.2
2018-Sep-20 08:30N 54°34' E 010°10'3 7.6
2018-Sep-20 08:03N 54°31' E 010°08'0 9.5
2018-Sep-20 08:00N 54°31' E 010°07'187.8
2018-Sep-20 08:00N 54°30' E 010°06'3 6.3 220 / 211013.9 18.4 17.2
2018-Sep-20 07:30N 54°33' E 010°07'0 0.1
2018-Sep-20 07:03N 54°33' E 010°06'0 0.1
2018-Sep-20 07:00N 54°33' E 010°06'3459.5
2018-Sep-20 07:00N 54°36' E 010°06'3 6.4 200 / 191013.7 17.9 17.3
2018-Sep-20 06:30N 54°33' E 010°06'0 0.1
2018-Sep-20 06:03N 54°33' E 010°07'352.6
2018-Sep-20 06:00N 54°36' E 010°06'31603.8 210 / 161013.8 17.4 17.3
2018-Sep-20 05:59N 54°33' E 010°07'0 0.2
2018-Sep-20 05:30N 54°33' E 010°07'0 0.2
2018-Sep-20 05:03N 54°33' E 010°07'0 0.3
2018-Sep-20 05:00N 54°33' E 010°07'3215.9
2018-Sep-20 05:00N 54°36' E 010°06'3 6.3 220 / 171013.8 17.9 17.3
2018-Sep-20 04:30N 54°33' E 010°07'0 0.1
2018-Sep-20 04:03N 54°33' E 010°07'0 0.3
2018-Sep-20 04:00N 54°33' E 010°07'3210.3
2018-Sep-20 04:00N 54°36' E 010°06'1 1.5 220 / 181013.7 18.0 17.2
2018-Sep-20 03:30N 54°35' E 010°07'3 7.1
2018-Sep-20 03:03N 54°32' E 010°06'110.2
2018-Sep-20 03:00N 54°32' E 010°06'21208.1
2018-Sep-20 03:00N 54°30' E 010°06'2 4.1 230 / 161013.6 18.2 17.3
2018-Sep-20 02:30N 54°30' E 010°03'1 2.0
2018-Sep-20 02:03N 54°30' E 010°01'0 5.8
2018-Sep-20 02:01N 54°31' E 010°01'164.6
2018-Sep-20 02:00N 54°30' E 010°00'3 6.2 220 / 181013.5 18.5 17.2
2018-Sep-20 01:29N 54°32' E 010°04'3 7.9
2018-Sep-20 01:03N 54°36' E 010°04'0 5.9
2018-Sep-20 01:00N 54°35' E 010°04'1981.4
2018-Sep-20 01:00N 54°36' E 010°06'611.5 230 / 191013.4 18.7 17.2
2018-Sep-20 00:30N 54°30' E 010°05'1 2.3
2018-Sep-20 00:03N 54°31' E 010°05'1 9.7
2018-Sep-20 00:00N 54°32' E 010°05'2211.2
2018-Sep-20 00:00N 54°30' E 010°06'713.7 230 / 201013.4 19.2 17.2
2018-Sep-19 23:30N 54°37' E 010°06'1 2.3
2018-Sep-19 23:03N 54°37' E 010°07'110.1
2018-Sep-19 23:00N 54°36' E 010°07'167.6
2018-Sep-19 23:00N 54°36' E 010°06'5 9.6 250 / 261013.3 19.7 17.3
2018-Sep-19 22:30N 54°31' E 010°07'2 4.7
2018-Sep-19 22:03N 54°33' E 010°09'0 0.1
2018-Sep-19 22:00N 54°33' E 010°09'31025.2
2018-Sep-19 22:00N 54°36' E 010°12'2 3.5 220 / 201013.8 19.7 17.3
2018-Sep-19 21:30N 54°36' E 010°09'1 2.5
2018-Sep-19 21:03N 54°37' E 010°11'1 9.8
2018-Sep-19 21:00N 54°36' E 010°11'1222.5
2018-Sep-19 21:00N 54°36' E 010°12'3 6.4 210 / 151014.1 19.0 17.3
2018-Sep-19 20:30N 54°33' E 010°12'510.2
2018-Sep-19 20:03N 54°37' E 010°12'0 9.4
2018-Sep-19 20:00N 54°38' E 010°12'2131.5
2018-Sep-19 20:00N 54°36' E 010°12'3 5.1 220 / 161014.0 18.7 17.4
2018-Sep-19 19:28N 54°34' E 010°14'2 5.1
2018-Sep-19 19:02N 54°32' E 010°16'010.3
2018-Sep-19 19:00N 54°32' E 010°16'2161.3
2018-Sep-19 19:00N 54°30' E 010°18'714.7 230 / 141013.9 19.4 17.6
2018-Sep-19 18:30N 54°37' E 010°16'4 8.5
2018-Sep-19 18:03N 54°38' E 010°09'1 9.9
2018-Sep-19 18:00N 54°38' E 010°09'3173.9
2018-Sep-19 18:00N 54°36' E 010°06'3 6.4 240 / 121013.9 19.9 17.3
2018-Sep-19 17:30N 54°33' E 010°08'4 8.5
2018-Sep-19 17:03N 54°29' E 010°06'010.2
2018-Sep-19 17:00N 54°29' E 010°05'157.0
2018-Sep-19 17:00N 54°30' E 010°06'3 7.1 280 / 191013.7 21.0 17.4
2018-Sep-19 16:30N 54°33' E 010°05'1 1.4
2018-Sep-19 16:03N 54°33' E 010°06'0 0.5
2018-Sep-19 16:00N 54°33' E 010°06'3180.3
2018-Sep-19 16:00N 54°36' E 010°06'3 5.4 220 / 171012.7 23.2 17.4
2018-Sep-19 15:30N 54°33' E 010°06'0 0.4
2018-Sep-19 15:03N 54°33' E 010°06'0 0.1
2018-Sep-19 15:00N 54°33' E 010°06'3189.1
2018-Sep-19 15:00N 54°36' E 010°06'3 5.8 200 / 211012.7 23.7 17.4
2018-Sep-19 14:30N 54°33' E 010°06'3 5.5
2018-Sep-19 14:00N 54°36' E 010°06'4 9.1 200 / 211013.3 22.7 17.4
2018-Sep-19 13:30N 54°32' E 010°06'1 2.1
2018-Sep-19 13:03N 54°31' E 010°07'110.0
2018-Sep-19 13:00N 54°31' E 010°07'1149.0
2018-Sep-19 13:00N 54°30' E 010°06'612.5 210 / 171013.9 22.2 17.4
2018-Sep-19 12:30N 54°36' E 010°07'4 8.6
2018-Sep-19 12:03N 54°32' E 010°08'1 9.8
2018-Sep-19 12:00N 54°32' E 010°08'2211.1
2018-Sep-19 12:00N 54°30' E 010°06'2 4.6 220 / 151014.6 21.4 17.3
2018-Sep-19 11:29N 54°30' E 010°02'0 0.5
2018-Sep-19 11:03N 54°30' E 010°02'0 7.0
2018-Sep-19 11:00N 54°31' E 010°02'11607.8
2018-Sep-19 11:00N 54°30' E 010°00'5 9.6 220 / 171014.7 20.2 17.2
2018-Sep-19 10:30N 54°34' E 010°03'1 1.2
2018-Sep-19 10:03N 54°35' E 010°03'0 0.1
2018-Sep-19 10:00N 54°35' E 010°03'2219.4
2018-Sep-19 10:00N 54°36' E 010°06'1 2.5 220 / 161015.2 19.0 17.1
2018-Sep-19 09:30N 54°37' E 010°04'510.1
2018-Sep-19 09:03N 54°32' E 010°04'110.3
2018-Sep-19 09:00N 54°32' E 010°04'2162.5
2018-Sep-19 09:00N 54°30' E 010°06'1 3.0 230 / 171015.0 17.9 17.1
2018-Sep-19 08:31N 54°30' E 010°08'2 4.5
2018-Sep-19 08:03N 54°29' E 010°05'0 6.8
2018-Sep-19 08:00N 54°30' E 010°05'167.3
2018-Sep-19 08:00N 54°30' E 010°06'2 3.4 220 / 141015.0 17.0 17.1
2018-Sep-19 07:30N 54°32' E 010°05'0 0.1
2018-Sep-19 07:03N 54°32' E 010°05'0 0.2
2018-Sep-19 07:00N 54°32' E 010°05'2140.5
2018-Sep-19 07:00N 54°30' E 010°06'2 3.4 210 / 131015.0 15.9 17.3
2018-Sep-19 06:30N 54°32' E 010°05'0 0.1
2018-Sep-19 06:03N 54°32' E 010°05'0 0.4
2018-Sep-19 06:00N 54°32' E 010°05'2114.5
2018-Sep-19 06:00N 54°30' E 010°06'2 3.5 200 / 111014.8 15.7 17.3
2018-Sep-19 05:30N 54°32' E 010°05'0 0.2
2018-Sep-19 05:03N 54°31' E 010°05'0 0.2
2018-Sep-19 05:00N 54°31' E 010°05'2112.1
2018-Sep-19 05:00N 54°30' E 010°06'2 3.3 220 / 141014.9 15.7 17.3
2018-Sep-19 04:30N 54°31' E 010°05'0 0.1
2018-Sep-19 04:03N 54°32' E 010°05'0 0.3
2018-Sep-19 04:00N 54°32' E 010°05'2113.7
2018-Sep-19 04:00N 54°30' E 010°06'3 5.7 220 / 151014.6 15.9 17.1
2018-Sep-19 03:30N 54°32' E 010°03'3 6.7
2018-Sep-19 03:03N 54°32' E 010°08'0 4.5
2018-Sep-19 03:00N 54°32' E 010°08'2155.6
2018-Sep-19 03:00N 54°30' E 010°06'2 4.9 230 / 141014.4 15.9 17.1
2018-Sep-19 02:30N 54°31' E 010°02'1 2.9
2018-Sep-19 02:03N 54°31' E 010°04'0 9.7
2018-Sep-19 02:00N 54°31' E 010°05'1240.8
2018-Sep-19 02:00N 54°30' E 010°06'3 5.8 220 / 171014.0 16.4 17.2
2018-Sep-19 01:30N 54°32' E 010°09'3 7.5
2018-Sep-19 01:03N 54°33' E 010°03'0 4.9
2018-Sep-19 01:00N 54°33' E 010°03'3213.2
2018-Sep-19 01:00N 54°36' E 010°06'4 8.1 230 / 171013.5 16.7 17.2
2018-Sep-19 00:30N 54°33' E 010°11'2 3.8
2018-Sep-19 00:03N 54°34' E 010°09'0 9.6
2018-Sep-19 00:00N 54°34' E 010°08'2134.1
2018-Sep-19 00:00N 54°36' E 010°06'1 2.4 230 / 131013.3 16.9 17.1
2018-Sep-18 23:30N 54°35' E 010°04'4 9.8
2018-Sep-18 23:03N 54°35' E 010°12'0 4.6
2018-Sep-18 23:00N 54°36' E 010°12'055.7
2018-Sep-18 23:00N 54°36' E 010°12'3 7.0 250 / 181012.9 17.5 17.3
2018-Sep-18 22:30N 54°37' E 010°06'1 2.0
2018-Sep-18 22:02N 54°36' E 010°06'0 2.5
2018-Sep-18 22:00N 54°36' E 010°06'0 7.0 240 / 151012.5 17.7 17.2
2018-Sep-18 21:59N 54°36' E 010°06'3 6.5
2018-Sep-18 21:30N 54°36' E 010°11'3 7.0
2018-Sep-18 21:03N 54°35' E 010°06'010.2
2018-Sep-18 21:00N 54°35' E 010°05'179.8
2018-Sep-18 21:00N 54°36' E 010°06'3 5.7 250 / 151012.5 18.2 17.2
2018-Sep-18 20:30N 54°34' E 010°09'1 2.2
2018-Sep-18 20:03N 54°33' E 010°09'010.0
2018-Sep-18 20:00N 54°33' E 010°08'3373.2
2018-Sep-18 20:00N 54°36' E 010°06'5 9.3 250 / 131012.5 18.2 17.2
2018-Sep-18 19:30N 54°32' E 010°03'3 7.5
2018-Sep-18 19:03N 54°31' E 010°09'010.1
2018-Sep-18 19:00N 54°31' E 010°08'2129.4
2018-Sep-18 19:00N 54°30' E 010°06'2 4.8 270 / 161012.0 19.0 17.2
2018-Sep-18 18:30N 54°30' E 010°02'4 8.2
2018-Sep-18 18:03N 54°30' E 010°08'0 9.9
2018-Sep-18 18:00N 54°30' E 010°08'181.0
2018-Sep-18 18:00N 54°30' E 010°06'3 5.1 280 / 121011.3 19.2 17.2
2018-Sep-18 17:30N 54°31' E 010°02'2 4.4
2018-Sep-18 17:03N 54°29' E 010°01'0 9.2
2018-Sep-18 17:00N 54°29' E 009°60'1115.1
2018-Sep-18 17:00N 54°30' E 010°00'2 5.0 270 / 191010.6 21.2 17.4
2018-Sep-18 16:30N 54°31' E 010°04'1 1.8
2018-Sep-18 16:03N 54°32' E 010°05'0 0.3
2018-Sep-18 16:00N 54°32' E 010°05'2130.6
2018-Sep-18 16:00N 54°30' E 010°06'2 4.0 220 / 151008.7 27.4 17.5
2018-Sep-18 15:30N 54°32' E 010°05'0 0.1
2018-Sep-18 15:03N 54°32' E 010°05'0 0.2
2018-Sep-18 15:00N 54°32' E 010°05'2128.3
2018-Sep-18 15:00N 54°30' E 010°06'2 4.0 200 / 191008.5 28.0 17.4
2018-Sep-18 14:30N 54°32' E 010°05'0 0.1
2018-Sep-18 14:00N 54°32' E 010°05'2128.6
2018-Sep-18 14:00N 54°30' E 010°06'611.2 190 / 201008.7 27.4 17.4
2018-Sep-18 13:30N 54°35' E 010°05'1 2.9
2018-Sep-18 13:03N 54°35' E 010°07'010.2
2018-Sep-18 13:00N 54°35' E 010°07'2104.8
2018-Sep-18 13:00N 54°36' E 010°06'613.4 190 / 191009.5 27.5 17.4
2018-Sep-18 12:30N 54°30' E 010°07'3 7.5
2018-Sep-18 12:03N 54°33' E 010°06'010.1
2018-Sep-18 12:00N 54°33' E 010°06'3181.5
2018-Sep-18 12:00N 54°36' E 010°06'2 4.7 160 / 161009.8 24.2 17.3
2018-Sep-18 11:30N 54°38' E 010°06'1 2.1
2018-Sep-18 11:02N 54°37' E 010°05'010.4
2018-Sep-18 11:00N 54°37' E 010°05'185.8
2018-Sep-18 11:00N 54°36' E 010°06'4 7.7 150 / 141010.5 21.4 17.2
2018-Sep-18 10:29N 54°32' E 010°05'0 0.2
2018-Sep-18 10:03N 54°32' E 010°05'0 1.2
2018-Sep-18 10:00N 54°32' E 010°05'2235.2
2018-Sep-18 10:00N 54°30' E 010°06'1 2.4 180 / 121011.2 23.2 17.1
2018-Sep-18 09:28N 54°31' E 010°04'511.5
2018-Sep-18 09:00N 54°36' E 010°06'118.4 170 / 121011.8 18.9 17.0
2018-Sep-18 08:56N 54°36' E 010°04'2 5.2
2018-Sep-18 08:30N 54°38' E 010°04'4 9.8
2018-Sep-18 08:03N 54°34' E 010°03'110.0
2018-Sep-18 08:00N 54°33' E 010°03'35672.9
2018-Sep-18 08:00N 54°36' E 010°06'5 9.2 200 / 111012.3 18.0 16.9
2018-Sep-18 07:30N 54°32' E 010°03'0 0.2
2018-Sep-18 07:01N 54°32' E 010°04'0 0.2
2018-Sep-18 07:00N 54°32' E 010°04'2145.8
2018-Sep-18 07:00N 54°30' E 010°06'2 4.1 210 / 91012.5 17.7 17.1
2018-Sep-18 06:30N 54°32' E 010°04'2 4.1
2018-Sep-18 06:00N 54°30' E 010°06'214.8 240 / 71012.7 16.7 17.1
2018-Sep-18 05:51N 54°32' E 010°04'0 0.2
2018-Sep-18 05:30N 54°32' E 010°04'0 0.2
2018-Sep-18 05:03N 54°32' E 010°04'233.3
2018-Sep-18 05:00N 54°30' E 010°06'2288.0 200 / 101012.8 16.4 17.1
2018-Sep-18 04:59N 54°32' E 010°04'0 0.1
2018-Sep-18 04:30N 54°32' E 010°04'0 0.2
2018-Sep-18 04:03N 54°32' E 010°04'239.7
2018-Sep-18 04:00N 54°30' E 010°06'2140.7 190 / 121013.1 16.7 17.0
2018-Sep-18 03:59N 54°32' E 010°04'0 0.3
2018-Sep-18 03:30N 54°32' E 010°04'4 8.4
2018-Sep-18 03:02N 54°36' E 010°04'0 5.6
2018-Sep-18 03:00N 54°36' E 010°04'185.8
2018-Sep-18 03:00N 54°36' E 010°06'611.1 180 / 101013.7 17.4 16.9
2018-Sep-18 02:30N 54°31' E 010°04'2 3.4
2018-Sep-18 02:03N 54°31' E 010°02'0 9.4
2018-Sep-18 02:00N 54°31' E 010°02'2125.3
2018-Sep-18 02:00N 54°30' E 010°00'1 2.1 210 / 61014.2 16.9 16.9
2018-Sep-18 01:30N 54°29' E 009°60'1 2.3
2018-Sep-18 01:03N 54°29' E 009°58'010.2
2018-Sep-18 01:00N 54°29' E 009°58'2445.7
2018-Sep-18 01:00N 54°30' E 010°00'3 5.2 170 / 131014.4 16.4 17.0
2018-Sep-18 00:28N 54°29' E 010°05'4 9.8
2018-Sep-18 00:01N 54°34' E 010°05'2120.5
2018-Sep-18 00:00N 54°36' E 010°06'2417.5 180 / 101014.9 17.2 17.0
2018-Sep-17 23:59N 54°34' E 010°05'4 8.6
2018-Sep-17 23:28N 54°39' E 010°05'4 9.9
2018-Sep-17 23:03N 54°35' E 010°05'010.6
2018-Sep-17 23:00N 54°34' E 010°05'2129.4
2018-Sep-17 23:00N 54°36' E 010°06'611.4 150 / 111015.3 17.4 17.0
2018-Sep-17 22:26N 54°30' E 010°07'0 1.1
2018-Sep-17 22:00N 54°30' E 010°06'412.2 140 / 121015.7 17.7 17.0
2018-Sep-17 21:42N 54°34' E 010°07'310.0
2018-Sep-17 21:25N 54°36' E 010°07'1 1.4
2018-Sep-17 21:00N 54°36' E 010°06'2 6.7 150 / 101016.2 17.9 17.2
2018-Sep-17 20:42N 54°35' E 010°09'2 9.9
2018-Sep-17 20:29N 54°33' E 010°09'4 7.9
2018-Sep-17 20:00N 54°36' E 010°12'0 0.2 140 / 61016.5 18.4 17.2
2018-Sep-17 19:11N 54°36' E 010°12'210.3
2018-Sep-17 19:00N 54°34' E 010°12'2138.7
2018-Sep-17 19:00N 54°36' E 010°12'3 3.4 240 / 21016.9 17.9 17.1
2018-Sep-17 18:00N 54°39' E 010°15'4304.3
2018-Sep-17 18:00N 54°42' E 010°18'816.9 270 / 121016.8 19.2 17.2
2018-Sep-17 17:30N 54°34' E 010°15'4 7.9
2018-Sep-17 17:00N 54°30' E 010°13'0252.2
2018-Sep-17 17:00N 54°30' E 010°12'7 7.0 240 / 91016.8 20.4 17.1
2018-Sep-17 16:00N 54°30' E 010°00'0 0.0 240 / 111016.8 20.7 17.4
2018-Sep-17 15:00N 54°30' E 010°00'0 0.0 240 / 131016.9 20.4 17.4
2018-Sep-17 14:00N 54°30' E 010°00'0 0.0 240 / 131017.2 20.7 17.1
2018-Sep-17 13:00N 54°30' E 010°00'317.0 240 / 151017.3 20.7 17.0
2018-Sep-17 12:49N 54°29' E 010°05'7 8.2
2018-Sep-17 12:00N 54°36' E 010°06'311.7 230 / 151017.2 20.2 17.1
2018-Sep-17 11:45N 54°39' E 010°06'3 8.2
2018-Sep-17 11:25N 54°36' E 010°07'410.3
2018-Sep-17 11:03N 54°32' E 010°07'238.4
2018-Sep-17 11:00N 54°30' E 010°06'275.9 230 / 171017.4 19.2 17.0
2018-Sep-17 10:58N 54°32' E 010°07'1 1.0
2018-Sep-17 10:03N 54°32' E 010°08'341.9
2018-Sep-17 10:00N 54°30' E 010°06'330.3 230 / 161017.8 18.2 17.1
2018-Sep-17 09:53N 54°32' E 010°10'4 8.6
2018-Sep-17 09:28N 54°36' E 010°11'1 1.2
2018-Sep-17 09:00N 54°36' E 010°12'2100.5 230 / 161017.9 16.4 16.9
2018-Sep-17 08:58N 54°37' E 010°09'510.0
2018-Sep-17 08:30N 54°32' E 010°09'3 6.0
2018-Sep-17 08:00N 54°30' E 010°06'121.5 210 / 121018.0 16.2 16.9
2018-Sep-17 07:56N 54°29' E 010°05'1 1.2
2018-Sep-17 07:00N 54°30' E 010°06'0 0.0 240 / 101018.0 15.2 17.1
2018-Sep-17 06:00N 54°30' E 010°06'0 0.0 210 / 151017.2 14.9 17.2
2018-Sep-17 05:00N 54°30' E 010°06'0 0.0 200 / 151017.1 14.7 17.2
2018-Sep-17 04:00N 54°30' E 010°06'1 5.7 200 / 151017.3 15.0 16.9
2018-Sep-17 03:48N 54°30' E 010°04'1 3.5
2018-Sep-17 03:24N 54°30' E 010°02'1 2.7
2018-Sep-17 03:02N 54°30' E 010°03'239.6
2018-Sep-17 03:00N 54°30' E 010°00'152.2 230 / 121017.4 15.9 16.8
2018-Sep-17 02:58N 54°30' E 010°02'1 2.8
2018-Sep-17 02:29N 54°30' E 010°04'2 4.8
2018-Sep-17 02:02N 54°32' E 010°05'4106.7
2018-Sep-17 02:00N 54°36' E 010°06'0 0.6 210 / 151016.6 16.0 17.0
2018-Sep-17 01:37N 54°36' E 010°06'1 6.1
2018-Sep-17 01:29N 54°36' E 010°07'611.4
2018-Sep-17 01:00N 54°30' E 010°06'1401.8 210 / 151017.2 16.0 16.9
2018-Sep-17 00:59N 54°31' E 010°07'5 6.2
2018-Sep-17 00:07N 54°36' E 010°08'218.0
2018-Sep-17 00:00N 54°36' E 010°12'235.7 220 / 141017.3 16.7 17.1
2018-Sep-16 23:56N 54°35' E 010°09'5 9.8
2018-Sep-16 23:25N 54°30' E 010°09'2 6.5
2018-Sep-16 23:03N 54°31' E 010°06'117.9
2018-Sep-16 23:00N 54°30' E 010°06'166.9 210 / 141017.8 16.7 16.9
2018-Sep-16 22:58N 54°31' E 010°04'4 7.1
2018-Sep-16 22:29N 54°29' E 009°59'1 2.2
2018-Sep-16 22:00N 54°30' E 010°00'0 4.6 200 / 131017.9 16.9 16.9
2018-Sep-16 21:55N 54°30' E 010°01'3 4.0
2018-Sep-16 21:16N 54°30' E 010°05'2 9.7
2018-Sep-16 21:03N 54°32' E 010°05'0 9.7
2018-Sep-16 21:00N 54°32' E 010°05'2155.7
2018-Sep-16 21:00N 54°30' E 010°06'3 6.4 190 / 141018.1 17.2 17.0
2018-Sep-16 20:30N 54°33' E 010°07'2 4.9
2018-Sep-16 20:00N 54°31' E 010°07'1165.9
2018-Sep-16 20:00N 54°30' E 010°06'0 0.0 190 / 121018.7 17.7 17.0
2018-Sep-16 19:00N 54°30' E 010°06'3 3.5 190 / 91019.0 17.2 17.0
2018-Sep-16 18:00N 54°30' E 010°00'0 0.0 180 / 81018.9 17.9 17.0
2018-Sep-16 17:00N 54°30' E 010°00'3 3.5 220 / 91018.8 18.4 17.0
2018-Sep-16 16:00N 54°30' E 010°06'0 0.0 220 / 141018.7 18.9 17.2
2018-Sep-16 15:00N 54°30' E 010°06'0 0.0 210 / 211019.0 19.4 17.2
2018-Sep-16 14:00N 54°30' E 010°06'2 3.4 220 / 191019.5 18.9 17.1
2018-Sep-16 13:26N 54°32' E 010°05'4 9.4
2018-Sep-16 13:00N 54°36' E 010°06'6 6.0 220 / 181020.2 18.4 17.2
2018-Sep-16 12:00N 54°30' E 010°06'3 3.5 210 / 181020.5 17.7 17.0
2018-Sep-16 11:00N 54°30' E 010°00'0 0.0 220 / 141021.3 17.9 16.9
2018-Sep-16 10:00N 54°30' E 010°00'0 0.0 220 / 171021.9 16.5 16.9
2018-Sep-16 09:00N 54°30' E 010°00'7 6.9 210 / 141022.3 15.4 16.8
2018-Sep-16 08:00N 54°36' E 010°06'0 0.0 210 / 131022.4 14.2 16.9
2018-Sep-16 07:00N 54°36' E 010°06'0 0.0 210 / 141022.6 12.9 17.1
2018-Sep-16 06:00N 54°36' E 010°06'0 0.0 200 / 101022.7 12.4 17.1
2018-Sep-16 05:00N 54°36' E 010°06'0 0.0 200 / 101022.7 12.2 17.1
2018-Sep-16 04:00N 54°36' E 010°06'0 0.0 210 / 131022.4 12.4 17.0
2018-Sep-16 03:00N 54°36' E 010°06'6 6.0 210 / 101022.4 12.4 16.9
2018-Sep-16 02:00N 54°30' E 010°06'3 3.5 190 / 71022.8 11.9 16.9
2018-Sep-16 01:00N 54°30' E 010°12'0 0.0 230 / 91023.1 12.9 17.0
2018-Sep-16 00:00N 54°30' E 010°12'7 6.9 250 / 111023.1 13.7 17.0
2018-Sep-15 23:00N 54°36' E 010°06'0 0.0 250 / 121023.0 13.7 17.1
2018-Sep-15 22:00N 54°36' E 010°06'0 0.0 230 / 141023.2 12.7 17.1
2018-Sep-15 21:00N 54°36' E 010°06'6 6.0 240 / 111022.9 13.4 17.0
2018-Sep-15 20:00N 54°30' E 010°06'0 0.0 240 / 121022.7 13.9 17.1
2018-Sep-15 19:00N 54°30' E 010°06'0 0.0 250 / 121022.4 13.7 17.0
2018-Sep-15 18:00N 54°30' E 010°06'3 3.5 240 / 171021.6 14.4 17.1
2018-Sep-15 17:00N 54°30' E 010°00'3 3.5 240 / 141021.1 14.5 17.1
2018-Sep-15 16:00N 54°30' E 010°06'0 0.0 260 / 151021.1 14.7 17.3
2018-Sep-15 15:00N 54°30' E 010°06'0 0.0 260 / 131020.9 14.9 17.2
2018-Sep-15 14:00N 54°30' E 010°06'3 3.5 270 / 191020.5 15.9 17.2
2018-Sep-15 13:00N 54°30' E 010°00'7 7.0 260 / 161019.9 15.9 17.2
2018-Sep-15 12:00N 54°30' E 010°12'7 7.0 270 / 191019.6 16.7 17.1
2018-Sep-15 11:00N 54°30' E 010°00'3 3.5 280 / 181019.0 16.5 17.2
2018-Sep-15 10:00N 54°30' E 010°06'0 0.0 260 / 171018.7 15.7 17.2
2018-Sep-15 09:00N 54°30' E 010°06'0 0.0 240 / 161018.4 15.4 17.1
2018-Sep-15 08:00N 54°30' E 010°06'0 0.0 230 / 131018.0 14.2 17.2
2018-Sep-15 07:00N 54°30' E 010°06'0 0.0 230 / 161017.5 13.5 17.3
2018-Sep-15 06:00N 54°30' E 010°06'0 0.0 210 / 161016.7 13.5 17.3
2018-Sep-15 05:00N 54°30' E 010°06'0 0.0 220 / 151016.1 13.4 17.3
2018-Sep-15 04:00N 54°30' E 010°06'0 0.0 230 / 181015.8 13.4 17.2
2018-Sep-15 03:00N 54°30' E 010°06'0 0.0 230 / 131015.8 13.0 17.1
2018-Sep-15 02:00N 54°30' E 010°06'0 0.0 230 / 181015.8 14.2 17.2
2018-Sep-15 01:00N 54°30' E 010°06'6 6.0 220 / 151016.0 14.7 17.1
2018-Sep-15 00:00N 54°36' E 010°06'6 6.0 220 / 201016.1 15.4 17.3
2018-Sep-14 23:00N 54°30' E 010°06'6 6.0 200 / 121016.3 14.9 17.2
2018-Sep-14 22:00N 54°36' E 010°06'6 6.0 220 / 131016.7 15.7 17.3
2018-Sep-14 21:00N 54°30' E 010°06'0 0.0 210 / 111016.8 15.4 17.2
2018-Sep-14 20:00N 54°30' E 010°06'0 0.0 220 / 101017.3 15.4 17.2
2018-Sep-14 19:00N 54°30' E 010°06'0 0.0 210 / 101017.4 15.5 17.3
2018-Sep-14 18:00N 54°30' E 010°06'0 0.0 210 / 101017.5 15.9 17.3
2018-Sep-14 17:00N 54°30' E 010°06'0 0.0 240 / 151017.7 16.4 17.3
2018-Sep-14 16:00N 54°30' E 010°06'0 0.0 250 / 161017.8 16.7 17.5
2018-Sep-14 15:00N 54°30' E 010°06'0 0.0 250 / 151018.1 17.0 17.5
2018-Sep-14 14:00N 54°30' E 010°06'0 0.0 240 / 191018.4 17.4 17.4
2018-Sep-14 13:00N 54°30' E 010°06'3 3.5 240 / 181018.7 17.0 17.3
2018-Sep-14 12:00N 54°30' E 010°00'3 3.5 230 / 191019.0 16.9 17.3
2018-Sep-14 11:00N 54°30' E 010°06'6 6.0 220 / 211019.2 16.5 17.3
2018-Sep-14 10:00N 54°36' E 010°06'5 9.1 230 / 181019.5 16.2 17.3
2018-Sep-14 09:29N 54°31' E 010°04'5 9.7
2018-Sep-14 09:00N 54°36' E 010°06'711.2 230 / 151019.4 15.2 17.3
2018-Sep-14 08:24N 54°30' E 010°10'2 5.3
2018-Sep-14 08:03N 54°31' E 010°07'123.2
2018-Sep-14 08:00N 54°30' E 010°06'3 7.4 210 / 171019.3 13.9 17.2
2018-Sep-14 07:39N 54°32' E 010°04'0 0.1
2018-Sep-14 07:14N 54°32' E 010°04'310.6
2018-Sep-14 07:00N 54°30' E 010°06'0 0.0 210 / 151019.2 13.7 17.5
2018-Sep-14 06:00N 54°30' E 010°06'0 0.0 220 / 141019.2 13.7 17.5
2018-Sep-14 05:00N 54°30' E 010°06'0 0.0 220 / 151018.9 13.7 17.4
2018-Sep-14 04:00N 54°30' E 010°06'0 0.0 220 / 161019.0 13.2 17.4
2018-Sep-14 03:00N 54°30' E 010°06'0 0.0 220 / 131019.0 12.9 17.3
2018-Sep-14 02:00N 54°30' E 010°06'6 6.0 220 / 141019.4 13.0 17.3
2018-Sep-14 01:00N 54°36' E 010°06'0 0.0 210 / 131019.4 12.7 17.3
2018-Sep-14 00:00N 54°36' E 010°06'412.5 240 / 111019.6 13.2 17.3
2018-Sep-13 23:42N 54°33' E 010°05'1 4.6
2018-Sep-13 23:29N 54°34' E 010°05'3 5.2
2018-Sep-13 23:00N 54°36' E 010°06'3 5.4 240 / 111019.8 13.4 17.3
2018-Sep-13 22:28N 54°33' E 010°06'3 6.1
2018-Sep-13 22:00N 54°36' E 010°06'0 0.6 240 / 131019.7 14.7 17.6
2018-Sep-13 21:12N 54°36' E 010°07'0 2.2
2018-Sep-13 21:00N 54°36' E 010°06'0 0.0 250 / 111020.0 14.2 17.4
2018-Sep-13 20:00N 54°36' E 010°06'0 0.0 250 / 81020.0 14.9 17.6
2018-Sep-13 19:00N 54°36' E 010°06'0 0.0 240 / 91019.8 15.2 17.5
2018-Sep-13 18:00N 54°36' E 010°06'0 0.0 260 / 91019.6 15.5 17.7
2018-Sep-13 17:00N 54°36' E 010°06'0 0.0 270 / 121019.5 16.5 17.7
2018-Sep-13 16:00N 54°36' E 010°06'0 0.0 260 / 121019.5 17.2 17.5
2018-Sep-13 15:00N 54°36' E 010°06'0 0.0 270 / 131019.7 17.4 17.6
2018-Sep-13 14:00N 54°36' E 010°06'0 0.0 250 / 111020.0 17.9 17.6
2018-Sep-13 13:00N 54°36' E 010°06'0 0.0 240 / 91020.4 17.5 17.6
2018-Sep-13 12:00N 54°36' E 010°06'0 0.0 220 / 91020.9 16.7 17.6
2018-Sep-13 11:00N 54°36' E 010°06'0 0.0 210 / 121021.1 15.9 17.5
2018-Sep-13 10:00N 54°36' E 010°06'0 0.0 210 / 111021.4 15.7 17.4
2018-Sep-13 09:00N 54°36' E 010°06'0 0.0 210 / 111021.9 15.0 17.3
2018-Sep-13 08:00N 54°36' E 010°06'5 8.6 210 / 101021.8 13.9 17.2
2018-Sep-13 07:22N 54°31' E 010°02'2 4.5
2018-Sep-13 07:00N 54°30' E 010°00'228.0 220 / 81021.9 13.2 17.4
2018-Sep-13 06:56N 54°31' E 010°02'2 1.9
2018-Sep-13 06:00N 54°30' E 010°00'0 0.0 220 / 81021.8 12.9 17.5
2018-Sep-13 05:00N 54°30' E 010°00'0 0.0 210 / 91021.5 12.0 17.4
2018-Sep-13 04:00N 54°30' E 010°00'7 6.9 220 / 91021.3 12.7 17.3
2018-Sep-13 03:00N 54°36' E 010°06'0 0.0 250 / 81021.2 13.0 17.6
2018-Sep-13 02:00N 54°36' E 010°06'0 0.0 270 / 81021.2 13.2 17.6
2018-Sep-13 01:00N 54°36' E 010°06'0 0.0 280 / 81021.3 13.7 17.6
2018-Sep-13 00:00N 54°36' E 010°06'0 0.0 260 / 101021.4 13.7 17.5
2018-Sep-12 23:00N 54°36' E 010°06'0 0.0 260 / 91021.6 13.9 17.5
2018-Sep-12 22:00N 54°36' E 010°06'0 0.0 260 / 81021.7 13.7 17.6
2018-Sep-12 21:00N 54°36' E 010°06'0 0.0 250 / 101021.3 13.9 17.6
2018-Sep-12 20:00N 54°36' E 010°06'0 0.0 250 / 101021.1 14.7 17.7
2018-Sep-12 19:00N 54°36' E 010°06'0 0.0 250 / 91021.0 14.9 17.7
2018-Sep-12 18:00N 54°36' E 010°06'3 3.5 250 / 101020.6 14.9 17.6
2018-Sep-12 17:00N 54°36' E 010°12'3 3.5 260 / 161020.1 15.4 17.7
2018-Sep-12 16:00N 54°36' E 010°18'1 1.5 260 / 171019.9 15.4 17.9
2018-Sep-12 15:23N 54°36' E 010°19'1 2.2
2018-Sep-12 15:00N 54°36' E 010°18'3 3.5 270 / 151019.9 15.4 17.9
2018-Sep-12 14:00N 54°36' E 010°12'3 3.5 280 / 151019.7 15.5 17.7
2018-Sep-12 13:00N 54°36' E 010°06'0 0.0 270 / 181019.4 14.9 17.8
2018-Sep-12 12:00N 54°36' E 010°06'   280 / 161019.2 14.9 17.8
Track history (hours):
 
Tides and Currents Weather Stations Pressure Air Temp Water Temp Dewpoint Dewpoint Depression Visibility Wind Speed Wind Dir Waves Ship Positions

Oceanographic research ship Alkor (Germany)

Ship's website: http://www.briese.de/

Detailed information on ship capabilities available from University of Delaware's Ocean Information Center.

Last reported at 2018-Sep-21 01:30 UTC. Time now 2018-Sep-21 01:49 UTC.
Position N 54°38' E 010°06'.

Length 55 m; draft 4.2 m.

Type: Ship. MMSI: 211216512.

Date/timePositionNaut miles runAvg speedWind from/ knotsBaromVisibWave heightAir tempDewpointWater temp
2018-Sep-21 01:30N 54°38' E 010°06'2 3.9
2018-Sep-21 01:03N 54°39' E 010°04'0 6.0
2018-Sep-21 01:00N 54°39' E 010°03'3207.5
2018-Sep-21 01:00N 54°36' E 010°06'2 4.1 180 / 111005.5 18.4 17.2
2018-Sep-21 00:30N 54°35' E 010°03'3 7.0
2018-Sep-21 00:03N 54°32' E 010°02'110.0
2018-Sep-21 00:00N 54°31' E 010°02'2126.3
2018-Sep-21 00:00N 54°30' E 010°00'510.1 170 / 181006.6 18.9 17.3
2018-Sep-20 23:30N 54°32' E 010°08'3 7.1
2018-Sep-20 23:03N 54°34' E 010°11'0 9.7
2018-Sep-20 23:00N 54°35' E 010°11'186.9
2018-Sep-20 23:00N 54°36' E 010°12'4 7.3 160 / 181007.7 18.4 17.3
2018-Sep-20 22:30N 54°40' E 010°11'3 7.6
2018-Sep-20 22:03N 54°43' E 010°11'0 0.2
2018-Sep-20 22:00N 54°43' E 010°11'177.5
2018-Sep-20 22:00N 54°42' E 010°12'2 4.0 170 / 171008.6 18.5 17.4
2018-Sep-20 21:30N 54°41' E 010°10'5 9.9
2018-Sep-20 21:03N 54°36' E 010°10'0 9.9
2018-Sep-20 21:00N 54°36' E 010°10'194.8
2018-Sep-20 21:00N 54°36' E 010°12'511.2 160 / 121009.9 18.2 17.3
2018-Sep-20 20:30N 54°31' E 010°10'2 3.3
2018-Sep-20 20:03N 54°32' E 010°08'010.3
2018-Sep-20 20:00N 54°33' E 010°08'3196.6
2018-Sep-20 20:00N 54°30' E 010°06'815.6 170 / 111010.6 19.5 17.3
2018-Sep-20 19:30N 54°37' E 010°08'4 9.8
2018-Sep-20 19:03N 54°42' E 010°08'123.7
2018-Sep-20 19:00N 54°42' E 010°06'258.1 200 / 91011.0 18.9 17.4
2018-Sep-20 18:58N 54°43' E 010°08'3 7.0
2018-Sep-20 18:30N 54°40' E 010°07'4 9.8
2018-Sep-20 18:03N 54°35' E 010°07'110.1
2018-Sep-20 18:00N 54°35' E 010°07'1153.0
2018-Sep-20 18:00N 54°36' E 010°06'612.8 250 / 121011.4 19.9 17.4
2018-Sep-20 17:30N 54°30' E 010°07'3 6.7
2018-Sep-20 17:03N 54°32' E 010°04'0 8.3
2018-Sep-20 17:00N 54°33' E 010°04'3386.7
2018-Sep-20 17:00N 54°36' E 010°06'3 6.3 240 / 171011.8 20.5 17.4
2018-Sep-20 16:30N 54°33' E 010°06'0 0.1
2018-Sep-20 16:03N 54°33' E 010°06'0 0.4
2018-Sep-20 16:00N 54°33' E 010°07'33681.5
2018-Sep-20 16:00N 54°36' E 010°06'3 6.4 220 / 161012.0 21.0 17.4
2018-Sep-20 15:30N 54°33' E 010°06'0 0.2
2018-Sep-20 15:03N 54°33' E 010°06'0 0.2
2018-Sep-20 15:00N 54°33' E 010°06'3368.7
2018-Sep-20 15:00N 54°36' E 010°06'3 6.6 230 / 151012.3 20.7 17.4
2018-Sep-20 14:30N 54°33' E 010°07'0 0.1
2018-Sep-20 14:00N 54°33' E 010°07'3268.4
2018-Sep-20 14:00N 54°36' E 010°06'1 1.1 230 / 171012.4 20.2 17.3
2018-Sep-20 13:30N 54°37' E 010°06'1 1.3
2018-Sep-20 13:03N 54°37' E 010°05'110.5
2018-Sep-20 13:00N 54°36' E 010°05'041.4
2018-Sep-20 13:00N 54°36' E 010°06'5 9.9 230 / 191013.0 20.2 17.3
2018-Sep-20 12:30N 54°31' E 010°05'1 1.6
2018-Sep-20 12:03N 54°31' E 010°04'110.1
2018-Sep-20 12:00N 54°31' E 010°04'2126.4
2018-Sep-20 12:00N 54°30' E 010°06'612.1 220 / 221013.0 19.9 17.3
2018-Sep-20 11:30N 54°36' E 010°04'611.5
2018-Sep-20 11:00N 54°30' E 010°06'3217.5 230 / 181013.3 19.4 17.3
2018-Sep-20 10:59N 54°32' E 010°03'1 2.4
2018-Sep-20 10:30N 54°32' E 010°05'1 2.4
2018-Sep-20 10:03N 54°33' E 010°07'0 0.3
2018-Sep-20 10:00N 54°33' E 010°07'3215.1
2018-Sep-20 10:00N 54°36' E 010°06'613.3 220 / 191013.7 19.2 17.3
2018-Sep-20 09:30N 54°30' E 010°07'4 9.6
2018-Sep-20 09:03N 54°34' E 010°08'010.0
2018-Sep-20 09:00N 54°34' E 010°08'2138.5
2018-Sep-20 09:00N 54°36' E 010°06'3 5.5 220 / 181013.8 18.4 17.2
2018-Sep-20 08:30N 54°34' E 010°10'3 7.6
2018-Sep-20 08:03N 54°31' E 010°08'0 9.5
2018-Sep-20 08:00N 54°31' E 010°07'187.8
2018-Sep-20 08:00N 54°30' E 010°06'3 6.3 220 / 211013.9 18.4 17.2
2018-Sep-20 07:30N 54°33' E 010°07'0 0.1
2018-Sep-20 07:03N 54°33' E 010°06'0 0.1
2018-Sep-20 07:00N 54°33' E 010°06'3459.5
2018-Sep-20 07:00N 54°36' E 010°06'3 6.4 200 / 191013.7 17.9 17.3
2018-Sep-20 06:30N 54°33' E 010°06'0 0.1
2018-Sep-20 06:03N 54°33' E 010°07'352.6
2018-Sep-20 06:00N 54°36' E 010°06'31603.8 210 / 161013.8 17.4 17.3
2018-Sep-20 05:59N 54°33' E 010°07'0 0.2
2018-Sep-20 05:30N 54°33' E 010°07'0 0.2
2018-Sep-20 05:03N 54°33' E 010°07'0 0.3
2018-Sep-20 05:00N 54°33' E 010°07'3215.9
2018-Sep-20 05:00N 54°36' E 010°06'3 6.3 220 / 171013.8 17.9 17.3
2018-Sep-20 04:30N 54°33' E 010°07'0 0.1
2018-Sep-20 04:03N 54°33' E 010°07'0 0.3
2018-Sep-20 04:00N 54°33' E 010°07'3210.3
2018-Sep-20 04:00N 54°36' E 010°06'1 1.5 220 / 181013.7 18.0 17.2
2018-Sep-20 03:30N 54°35' E 010°07'3 7.1
2018-Sep-20 03:03N 54°32' E 010°06'110.2
2018-Sep-20 03:00N 54°32' E 010°06'21208.1
2018-Sep-20 03:00N 54°30' E 010°06'2 4.1 230 / 161013.6 18.2 17.3
2018-Sep-20 02:30N 54°30' E 010°03'1 2.0
2018-Sep-20 02:03N 54°30' E 010°01'0 5.8
2018-Sep-20 02:01N 54°31' E 010°01'164.6
2018-Sep-20 02:00N 54°30' E 010°00'3 6.2 220 / 181013.5 18.5 17.2
2018-Sep-20 01:29N 54°32' E 010°04'3 7.9
2018-Sep-20 01:03N 54°36' E 010°04'0 5.9
2018-Sep-20 01:00N 54°35' E 010°04'1981.4
2018-Sep-20 01:00N 54°36' E 010°06'611.5 230 / 191013.4 18.7 17.2
2018-Sep-20 00:30N 54°30' E 010°05'1 2.3
2018-Sep-20 00:03N 54°31' E 010°05'1 9.7
2018-Sep-20 00:00N 54°32' E 010°05'2211.2
2018-Sep-20 00:00N 54°30' E 010°06'713.7 230 / 201013.4 19.2 17.2
2018-Sep-19 23:30N 54°37' E 010°06'1 2.3
2018-Sep-19 23:03N 54°37' E 010°07'110.1
2018-Sep-19 23:00N 54°36' E 010°07'167.6
2018-Sep-19 23:00N 54°36' E 010°06'5 9.6 250 / 261013.3 19.7 17.3
2018-Sep-19 22:30N 54°31' E 010°07'2 4.7
2018-Sep-19 22:03N 54°33' E 010°09'0 0.1
2018-Sep-19 22:00N 54°33' E 010°09'31025.2
2018-Sep-19 22:00N 54°36' E 010°12'2 3.5 220 / 201013.8 19.7 17.3
2018-Sep-19 21:30N 54°36' E 010°09'1 2.5
2018-Sep-19 21:03N 54°37' E 010°11'1 9.8
2018-Sep-19 21:00N 54°36' E 010°11'1222.5
2018-Sep-19 21:00N 54°36' E 010°12'3 6.4 210 / 151014.1 19.0 17.3
2018-Sep-19 20:30N 54°33' E 010°12'510.2
2018-Sep-19 20:03N 54°37' E 010°12'0 9.4
2018-Sep-19 20:00N 54°38' E 010°12'2131.5
2018-Sep-19 20:00N 54°36' E 010°12'3 5.1 220 / 161014.0 18.7 17.4
2018-Sep-19 19:28N 54°34' E 010°14'2 5.1
2018-Sep-19 19:02N 54°32' E 010°16'010.3
2018-Sep-19 19:00N 54°32' E 010°16'2161.3
2018-Sep-19 19:00N 54°30' E 010°18'714.7 230 / 141013.9 19.4 17.6
2018-Sep-19 18:30N 54°37' E 010°16'4 8.5
2018-Sep-19 18:03N 54°38' E 010°09'1 9.9
2018-Sep-19 18:00N 54°38' E 010°09'3173.9
2018-Sep-19 18:00N 54°36' E 010°06'3 6.4 240 / 121013.9 19.9 17.3
2018-Sep-19 17:30N 54°33' E 010°08'4 8.5
2018-Sep-19 17:03N 54°29' E 010°06'010.2
2018-Sep-19 17:00N 54°29' E 010°05'157.0
2018-Sep-19 17:00N 54°30' E 010°06'3 7.1 280 / 191013.7 21.0 17.4
2018-Sep-19 16:30N 54°33' E 010°05'1 1.4
2018-Sep-19 16:03N 54°33' E 010°06'0 0.5
2018-Sep-19 16:00N 54°33' E 010°06'3180.3
2018-Sep-19 16:00N 54°36' E 010°06'3 5.4 220 / 171012.7 23.2 17.4
2018-Sep-19 15:30N 54°33' E 010°06'0 0.4
2018-Sep-19 15:03N 54°33' E 010°06'0 0.1
2018-Sep-19 15:00N 54°33' E 010°06'3189.1
2018-Sep-19 15:00N 54°36' E 010°06'3 5.8 200 / 211012.7 23.7 17.4
2018-Sep-19 14:30N 54°33' E 010°06'3 5.5
2018-Sep-19 14:00N 54°36' E 010°06'4 9.1 200 / 211013.3 22.7 17.4
2018-Sep-19 13:30N 54°32' E 010°06'1 2.1
2018-Sep-19 13:03N 54°31' E 010°07'110.0
2018-Sep-19 13:00N 54°31' E 010°07'1149.0
2018-Sep-19 13:00N 54°30' E 010°06'612.5 210 / 171013.9 22.2 17.4
2018-Sep-19 12:30N 54°36' E 010°07'4 8.6
2018-Sep-19 12:03N 54°32' E 010°08'1 9.8
2018-Sep-19 12:00N 54°32' E 010°08'2211.1
2018-Sep-19 12:00N 54°30' E 010°06'2 4.6 220 / 151014.6 21.4 17.3
2018-Sep-19 11:29N 54°30' E 010°02'0 0.5
2018-Sep-19 11:03N 54°30' E 010°02'0 7.0
2018-Sep-19 11:00N 54°31' E 010°02'11607.8
2018-Sep-19 11:00N 54°30' E 010°00'5 9.6 220 / 171014.7 20.2 17.2
2018-Sep-19 10:30N 54°34' E 010°03'1 1.2
2018-Sep-19 10:03N 54°35' E 010°03'0 0.1
2018-Sep-19 10:00N 54°35' E 010°03'2219.4
2018-Sep-19 10:00N 54°36' E 010°06'1 2.5 220 / 161015.2 19.0 17.1
2018-Sep-19 09:30N 54°37' E 010°04'510.1
2018-Sep-19 09:03N 54°32' E 010°04'110.3
2018-Sep-19 09:00N 54°32' E 010°04'2162.5
2018-Sep-19 09:00N 54°30' E 010°06'1 3.0 230 / 171015.0 17.9 17.1
2018-Sep-19 08:31N 54°30' E 010°08'2 4.5
2018-Sep-19 08:03N 54°29' E 010°05'0 6.8
2018-Sep-19 08:00N 54°30' E 010°05'167.3
2018-Sep-19 08:00N 54°30' E 010°06'2 3.4 220 / 141015.0 17.0 17.1
2018-Sep-19 07:30N 54°32' E 010°05'0 0.1
2018-Sep-19 07:03N 54°32' E 010°05'0 0.2
2018-Sep-19 07:00N 54°32' E 010°05'2140.5
2018-Sep-19 07:00N 54°30' E 010°06'2 3.4 210 / 131015.0 15.9 17.3
2018-Sep-19 06:30N 54°32' E 010°05'0 0.1
2018-Sep-19 06:03N 54°32' E 010°05'0 0.4
2018-Sep-19 06:00N 54°32' E 010°05'2114.5
2018-Sep-19 06:00N 54°30' E 010°06'2 3.5 200 / 111014.8 15.7 17.3
2018-Sep-19 05:30N 54°32' E 010°05'0 0.2
2018-Sep-19 05:03N 54°31' E 010°05'0 0.2
2018-Sep-19 05:00N 54°31' E 010°05'2112.1
2018-Sep-19 05:00N 54°30' E 010°06'2 3.3 220 / 141014.9 15.7 17.3
2018-Sep-19 04:30N 54°31' E 010°05'0 0.1
2018-Sep-19 04:03N 54°32' E 010°05'0 0.3
2018-Sep-19 04:00N 54°32' E 010°05'2113.7
2018-Sep-19 04:00N 54°30' E 010°06'3 5.7 220 / 151014.6 15.9 17.1
2018-Sep-19 03:30N 54°32' E 010°03'3 6.7
2018-Sep-19 03:03N 54°32' E 010°08'0 4.5
2018-Sep-19 03:00N 54°32' E 010°08'2155.6
2018-Sep-19 03:00N 54°30' E 010°06'2 4.9 230 / 141014.4 15.9 17.1
2018-Sep-19 02:30N 54°31' E 010°02'1 2.9
2018-Sep-19 02:03N 54°31' E 010°04'0 9.7
2018-Sep-19 02:00N 54°31' E 010°05'1240.8
2018-Sep-19 02:00N 54°30' E 010°06'3 5.8 220 / 171014.0 16.4 17.2
2018-Sep-19 01:30N 54°32' E 010°09'3 7.5
2018-Sep-19 01:03N 54°33' E 010°03'0 4.9
2018-Sep-19 01:00N 54°33' E 010°03'3213.2
2018-Sep-19 01:00N 54°36' E 010°06'4 8.1 230 / 171013.5 16.7 17.2
2018-Sep-19 00:30N 54°33' E 010°11'2 3.8
2018-Sep-19 00:03N 54°34' E 010°09'0 9.6
2018-Sep-19 00:00N 54°34' E 010°08'2134.1
2018-Sep-19 00:00N 54°36' E 010°06'1 2.4 230 / 131013.3 16.9 17.1
2018-Sep-18 23:30N 54°35' E 010°04'4 9.8
2018-Sep-18 23:03N 54°35' E 010°12'0 4.6
2018-Sep-18 23:00N 54°36' E 010°12'055.7
2018-Sep-18 23:00N 54°36' E 010°12'3 7.0 250 / 181012.9 17.5 17.3
2018-Sep-18 22:30N 54°37' E 010°06'1 2.0
2018-Sep-18 22:02N 54°36' E 010°06'0 2.5
2018-Sep-18 22:00N 54°36' E 010°06'0 7.0 240 / 151012.5 17.7 17.2
2018-Sep-18 21:59N 54°36' E 010°06'3 6.5
2018-Sep-18 21:30N 54°36' E 010°11'3 7.0
2018-Sep-18 21:03N 54°35' E 010°06'010.2
2018-Sep-18 21:00N 54°35' E 010°05'179.8
2018-Sep-18 21:00N 54°36' E 010°06'3 5.7 250 / 151012.5 18.2 17.2
2018-Sep-18 20:30N 54°34' E 010°09'1 2.2
2018-Sep-18 20:03N 54°33' E 010°09'010.0
2018-Sep-18 20:00N 54°33' E 010°08'3373.2
2018-Sep-18 20:00N 54°36' E 010°06'5 9.3 250 / 131012.5 18.2 17.2
2018-Sep-18 19:30N 54°32' E 010°03'3 7.5
2018-Sep-18 19:03N 54°31' E 010°09'010.1
2018-Sep-18 19:00N 54°31' E 010°08'2129.4
2018-Sep-18 19:00N 54°30' E 010°06'2 4.8 270 / 161012.0 19.0 17.2
2018-Sep-18 18:30N 54°30' E 010°02'4 8.2
2018-Sep-18 18:03N 54°30' E 010°08'0 9.9
2018-Sep-18 18:00N 54°30' E 010°08'181.0
2018-Sep-18 18:00N 54°30' E 010°06'3 5.1 280 / 121011.3 19.2 17.2
2018-Sep-18 17:30N 54°31' E 010°02'2 4.4
2018-Sep-18 17:03N 54°29' E 010°01'0 9.2
2018-Sep-18 17:00N 54°29' E 009°60'1115.1
2018-Sep-18 17:00N 54°30' E 010°00'2 5.0 270 / 191010.6 21.2 17.4
2018-Sep-18 16:30N 54°31' E 010°04'1 1.8
2018-Sep-18 16:03N 54°32' E 010°05'0 0.3
2018-Sep-18 16:00N 54°32' E 010°05'2130.6
2018-Sep-18 16:00N 54°30' E 010°06'2 4.0 220 / 151008.7 27.4 17.5
2018-Sep-18 15:30N 54°32' E 010°05'0 0.1
2018-Sep-18 15:03N 54°32' E 010°05'0 0.2
2018-Sep-18 15:00N 54°32' E 010°05'2128.3
2018-Sep-18 15:00N 54°30' E 010°06'2 4.0 200 / 191008.5 28.0 17.4
2018-Sep-18 14:30N 54°32' E 010°05'0 0.1
2018-Sep-18 14:00N 54°32' E 010°05'2128.6
2018-Sep-18 14:00N 54°30' E 010°06'611.2 190 / 201008.7 27.4 17.4
2018-Sep-18 13:30N 54°35' E 010°05'1 2.9
2018-Sep-18 13:03N 54°35' E 010°07'010.2
2018-Sep-18 13:00N 54°35' E 010°07'2104.8
2018-Sep-18 13:00N 54°36' E 010°06'613.4 190 / 191009.5 27.5 17.4
2018-Sep-18 12:30N 54°30' E 010°07'3 7.5
2018-Sep-18 12:03N 54°33' E 010°06'010.1
2018-Sep-18 12:00N 54°33' E 010°06'3181.5
2018-Sep-18 12:00N 54°36' E 010°06'2 4.7 160 / 161009.8 24.2 17.3
2018-Sep-18 11:30N 54°38' E 010°06'1 2.1
2018-Sep-18 11:02N 54°37' E 010°05'010.4
2018-Sep-18 11:00N 54°37' E 010°05'185.8
2018-Sep-18 11:00N 54°36' E 010°06'4 7.7 150 / 141010.5 21.4 17.2
2018-Sep-18 10:29N 54°32' E 010°05'0 0.2
2018-Sep-18 10:03N 54°32' E 010°05'0 1.2
2018-Sep-18 10:00N 54°32' E 010°05'2235.2
2018-Sep-18 10:00N 54°30' E 010°06'1 2.4 180 / 121011.2 23.2 17.1
2018-Sep-18 09:28N 54°31' E 010°04'511.5
2018-Sep-18 09:00N 54°36' E 010°06'118.4 170 / 121011.8 18.9 17.0
2018-Sep-18 08:56N 54°36' E 010°04'2 5.2
2018-Sep-18 08:30N 54°38' E 010°04'4 9.8
2018-Sep-18 08:03N 54°34' E 010°03'110.0
2018-Sep-18 08:00N 54°33' E 010°03'35672.9
2018-Sep-18 08:00N 54°36' E 010°06'5 9.2 200 / 111012.3 18.0 16.9
2018-Sep-18 07:30N 54°32' E 010°03'0 0.2
2018-Sep-18 07:01N 54°32' E 010°04'0 0.2
2018-Sep-18 07:00N 54°32' E 010°04'2145.8
2018-Sep-18 07:00N 54°30' E 010°06'2 4.1 210 / 91012.5 17.7 17.1
2018-Sep-18 06:30N 54°32' E 010°04'2 4.1
2018-Sep-18 06:00N 54°30' E 010°06'214.8 240 / 71012.7 16.7 17.1
2018-Sep-18 05:51N 54°32' E 010°04'0 0.2
2018-Sep-18 05:30N 54°32' E 010°04'0 0.2
2018-Sep-18 05:03N 54°32' E 010°04'233.3
2018-Sep-18 05:00N 54°30' E 010°06'2288.0 200 / 101012.8 16.4 17.1
2018-Sep-18 04:59N 54°32' E 010°04'0 0.1
2018-Sep-18 04:30N 54°32' E 010°04'0 0.2
2018-Sep-18 04:03N 54°32' E 010°04'239.7
2018-Sep-18 04:00N 54°30' E 010°06'2140.7 190 / 121013.1 16.7 17.0
2018-Sep-18 03:59N 54°32' E 010°04'0 0.3
2018-Sep-18 03:30N 54°32' E 010°04'4 8.4
2018-Sep-18 03:02N 54°36' E 010°04'0 5.6
2018-Sep-18 03:00N 54°36' E 010°04'185.8
2018-Sep-18 03:00N 54°36' E 010°06'611.1 180 / 101013.7 17.4 16.9
2018-Sep-18 02:30N 54°31' E 010°04'2 3.4
2018-Sep-18 02:03N 54°31' E 010°02'0 9.4
2018-Sep-18 02:00N 54°31' E 010°02'2125.3
2018-Sep-18 02:00N 54°30' E 010°00'1 2.1 210 / 61014.2 16.9 16.9
2018-Sep-18 01:30N 54°29' E 009°60'1 2.3
2018-Sep-18 01:03N 54°29' E 009°58'010.2
2018-Sep-18 01:00N 54°29' E 009°58'2445.7
2018-Sep-18 01:00N 54°30' E 010°00'3 5.2 170 / 131014.4 16.4 17.0
2018-Sep-18 00:28N 54°29' E 010°05'4 9.8
2018-Sep-18 00:01N 54°34' E 010°05'2120.5
2018-Sep-18 00:00N 54°36' E 010°06'2417.5 180 / 101014.9 17.2 17.0
2018-Sep-17 23:59N 54°34' E 010°05'4 8.6
2018-Sep-17 23:28N 54°39' E 010°05'4 9.9
2018-Sep-17 23:03N 54°35' E 010°05'010.6
2018-Sep-17 23:00N 54°34' E 010°05'2129.4
2018-Sep-17 23:00N 54°36' E 010°06'611.4 150 / 111015.3 17.4 17.0
2018-Sep-17 22:26N 54°30' E 010°07'0 1.1
2018-Sep-17 22:00N 54°30' E 010°06'412.2 140 / 121015.7 17.7 17.0
2018-Sep-17 21:42N 54°34' E 010°07'310.0
2018-Sep-17 21:25N 54°36' E 010°07'1 1.4
2018-Sep-17 21:00N 54°36' E 010°06'2 6.7 150 / 101016.2 17.9 17.2
2018-Sep-17 20:42N 54°35' E 010°09'2 9.9
2018-Sep-17 20:29N 54°33' E 010°09'4 7.9
2018-Sep-17 20:00N 54°36' E 010°12'0 0.2 140 / 61016.5 18.4 17.2
2018-Sep-17 19:11N 54°36' E 010°12'210.3
2018-Sep-17 19:00N 54°34' E 010°12'2138.7
2018-Sep-17 19:00N 54°36' E 010°12'3 3.4 240 / 21016.9 17.9 17.1
2018-Sep-17 18:00N 54°39' E 010°15'4304.3
2018-Sep-17 18:00N 54°42' E 010°18'816.9 270 / 121016.8 19.2 17.2
2018-Sep-17 17:30N 54°34' E 010°15'4 7.9
2018-Sep-17 17:00N 54°30' E 010°13'0252.2
2018-Sep-17 17:00N 54°30' E 010°12'7 7.0 240 / 91016.8 20.4 17.1
2018-Sep-17 16:00N 54°30' E 010°00'0 0.0 240 / 111016.8 20.7 17.4
2018-Sep-17 15:00N 54°30' E 010°00'0 0.0 240 / 131016.9 20.4 17.4
2018-Sep-17 14:00N 54°30' E 010°00'0 0.0 240 / 131017.2 20.7 17.1
2018-Sep-17 13:00N 54°30' E 010°00'317.0 240 / 151017.3 20.7 17.0
2018-Sep-17 12:49N 54°29' E 010°05'7 8.2
2018-Sep-17 12:00N 54°36' E 010°06'311.7 230 / 151017.2 20.2 17.1
2018-Sep-17 11:45N 54°39' E 010°06'3 8.2
2018-Sep-17 11:25N 54°36' E 010°07'410.3
2018-Sep-17 11:03N 54°32' E 010°07'238.4
2018-Sep-17 11:00N 54°30' E 010°06'275.9 230 / 171017.4 19.2 17.0
2018-Sep-17 10:58N 54°32' E 010°07'1 1.0
2018-Sep-17 10:03N 54°32' E 010°08'341.9
2018-Sep-17 10:00N 54°30' E 010°06'330.3 230 / 161017.8 18.2 17.1
2018-Sep-17 09:53N 54°32' E 010°10'4 8.6
2018-Sep-17 09:28N 54°36' E 010°11'1 1.2
2018-Sep-17 09:00N 54°36' E 010°12'2100.5 230 / 161017.9 16.4 16.9
2018-Sep-17 08:58N 54°37' E 010°09'510.0
2018-Sep-17 08:30N 54°32' E 010°09'3 6.0
2018-Sep-17 08:00N 54°30' E 010°06'121.5 210 / 121018.0 16.2 16.9
2018-Sep-17 07:56N 54°29' E 010°05'1 1.2
2018-Sep-17 07:00N 54°30' E 010°06'0 0.0 240 / 101018.0 15.2 17.1
2018-Sep-17 06:00N 54°30' E 010°06'0 0.0 210 / 151017.2 14.9 17.2
2018-Sep-17 05:00N 54°30' E 010°06'0 0.0 200 / 151017.1 14.7 17.2
2018-Sep-17 04:00N 54°30' E 010°06'1 5.7 200 / 151017.3 15.0 16.9
2018-Sep-17 03:48N 54°30' E 010°04'1 3.5
2018-Sep-17 03:24N 54°30' E 010°02'1 2.7
2018-Sep-17 03:02N 54°30' E 010°03'239.6
2018-Sep-17 03:00N 54°30' E 010°00'152.2 230 / 121017.4 15.9 16.8
2018-Sep-17 02:58N 54°30' E 010°02'1 2.8
2018-Sep-17 02:29N 54°30' E 010°04'2 4.8
2018-Sep-17 02:02N 54°32' E 010°05'4106.7
2018-Sep-17 02:00N 54°36' E 010°06'0 0.6 210 / 151016.6 16.0 17.0
2018-Sep-17 01:37N 54°36' E 010°06'1 6.1
2018-Sep-17 01:29N 54°36' E 010°07'611.4
2018-Sep-17 01:00N 54°30' E 010°06'1401.8 210 / 151017.2 16.0 16.9
2018-Sep-17 00:59N 54°31' E 010°07'5 6.2
2018-Sep-17 00:07N 54°36' E 010°08'218.0
2018-Sep-17 00:00N 54°36' E 010°12'235.7 220 / 141017.3 16.7 17.1
2018-Sep-16 23:56N 54°35' E 010°09'5 9.8
2018-Sep-16 23:25N 54°30' E 010°09'2 6.5
2018-Sep-16 23:03N 54°31' E 010°06'117.9
2018-Sep-16 23:00N 54°30' E 010°06'166.9 210 / 141017.8 16.7 16.9
2018-Sep-16 22:58N 54°31' E 010°04'4 7.1
2018-Sep-16 22:29N 54°29' E 009°59'1 2.2
2018-Sep-16 22:00N 54°30' E 010°00'0 4.6 200 / 131017.9 16.9 16.9
2018-Sep-16 21:55N 54°30' E 010°01'3 4.0
2018-Sep-16 21:16N 54°30' E 010°05'2 9.7
2018-Sep-16 21:03N 54°32' E 010°05'0 9.7
2018-Sep-16 21:00N 54°32' E 010°05'2155.7
2018-Sep-16 21:00N 54°30' E 010°06'3 6.4 190 / 141018.1 17.2 17.0
2018-Sep-16 20:30N 54°33' E 010°07'2 4.9
2018-Sep-16 20:00N 54°31' E 010°07'1165.9
2018-Sep-16 20:00N 54°30' E 010°06'0 0.0 190 / 121018.7 17.7 17.0
2018-Sep-16 19:00N 54°30' E 010°06'3 3.5 190 / 91019.0 17.2 17.0
2018-Sep-16 18:00N 54°30' E 010°00'0 0.0 180 / 81018.9 17.9 17.0
2018-Sep-16 17:00N 54°30' E 010°00'3 3.5 220 / 91018.8 18.4 17.0
2018-Sep-16 16:00N 54°30' E 010°06'0 0.0 220 / 141018.7 18.9 17.2
2018-Sep-16 15:00N 54°30' E 010°06'0 0.0 210 / 211019.0 19.4 17.2
2018-Sep-16 14:00N 54°30' E 010°06'2 3.4 220 / 191019.5 18.9 17.1
2018-Sep-16 13:26N 54°32' E 010°05'4 9.4
2018-Sep-16 13:00N 54°36' E 010°06'6 6.0 220 / 181020.2 18.4 17.2
2018-Sep-16 12:00N 54°30' E 010°06'3 3.5 210 / 181020.5 17.7 17.0
2018-Sep-16 11:00N 54°30' E 010°00'0 0.0 220 / 141021.3 17.9 16.9
2018-Sep-16 10:00N 54°30' E 010°00'0 0.0 220 / 171021.9 16.5 16.9
2018-Sep-16 09:00N 54°30' E 010°00'7 6.9 210 / 141022.3 15.4 16.8
2018-Sep-16 08:00N 54°36' E 010°06'0 0.0 210 / 131022.4 14.2 16.9
2018-Sep-16 07:00N 54°36' E 010°06'0 0.0 210 / 141022.6 12.9 17.1
2018-Sep-16 06:00N 54°36' E 010°06'0 0.0 200 / 101022.7 12.4 17.1
2018-Sep-16 05:00N 54°36' E 010°06'0 0.0 200 / 101022.7 12.2 17.1
2018-Sep-16 04:00N 54°36' E 010°06'0 0.0 210 / 131022.4 12.4 17.0
2018-Sep-16 03:00N 54°36' E 010°06'6 6.0 210 / 101022.4 12.4 16.9
2018-Sep-16 02:00N 54°30' E 010°06'3 3.5 190 / 71022.8 11.9 16.9
2018-Sep-16 01:00N 54°30' E 010°12'0 0.0 230 / 91023.1 12.9 17.0
2018-Sep-16 00:00N 54°30' E 010°12'7 6.9 250 / 111023.1 13.7 17.0
2018-Sep-15 23:00N 54°36' E 010°06'0 0.0 250 / 121023.0 13.7 17.1
2018-Sep-15 22:00N 54°36' E 010°06'0 0.0 230 / 141023.2 12.7 17.1
2018-Sep-15 21:00N 54°36' E 010°06'6 6.0 240 / 111022.9 13.4 17.0
2018-Sep-15 20:00N 54°30' E 010°06'0 0.0 240 / 121022.7 13.9 17.1
2018-Sep-15 19:00N 54°30' E 010°06'0 0.0 250 / 121022.4 13.7 17.0
2018-Sep-15 18:00N 54°30' E 010°06'3 3.5 240 / 171021.6 14.4 17.1
2018-Sep-15 17:00N 54°30' E 010°00'3 3.5 240 / 141021.1 14.5 17.1
2018-Sep-15 16:00N 54°30' E 010°06'0 0.0 260 / 151021.1 14.7 17.3
2018-Sep-15 15:00N 54°30' E 010°06'0 0.0 260 / 131020.9 14.9 17.2
2018-Sep-15 14:00N 54°30' E 010°06'3 3.5 270 / 191020.5 15.9 17.2
2018-Sep-15 13:00N 54°30' E 010°00'7 7.0 260 / 161019.9 15.9 17.2
2018-Sep-15 12:00N 54°30' E 010°12'7 7.0 270 / 191019.6 16.7 17.1
2018-Sep-15 11:00N 54°30' E 010°00'3 3.5 280 / 181019.0 16.5 17.2
2018-Sep-15 10:00N 54°30' E 010°06'0 0.0 260 / 171018.7 15.7 17.2
2018-Sep-15 09:00N 54°30' E 010°06'0 0.0 240 / 161018.4 15.4 17.1
2018-Sep-15 08:00N 54°30' E 010°06'0 0.0 230 / 131018.0 14.2 17.2
2018-Sep-15 07:00N 54°30' E 010°06'0 0.0 230 / 161017.5 13.5 17.3
2018-Sep-15 06:00N 54°30' E 010°06'0 0.0 210 / 161016.7 13.5 17.3
2018-Sep-15 05:00N 54°30' E 010°06'0 0.0 220 / 151016.1 13.4 17.3
2018-Sep-15 04:00N 54°30' E 010°06'0 0.0 230 / 181015.8 13.4 17.2
2018-Sep-15 03:00N 54°30' E 010°06'0 0.0 230 / 131015.8 13.0 17.1
2018-Sep-15 02:00N 54°30' E 010°06'0 0.0 230 / 181015.8 14.2 17.2
2018-Sep-15 01:00N 54°30' E 010°06'6 6.0 220 / 151016.0 14.7 17.1
2018-Sep-15 00:00N 54°36' E 010°06'6 6.0 220 / 201016.1 15.4 17.3
2018-Sep-14 23:00N 54°30' E 010°06'6 6.0 200 / 121016.3 14.9 17.2
2018-Sep-14 22:00N 54°36' E 010°06'6 6.0 220 / 131016.7 15.7 17.3
2018-Sep-14 21:00N 54°30' E 010°06'0 0.0 210 / 111016.8 15.4 17.2
2018-Sep-14 20:00N 54°30' E 010°06'0 0.0 220 / 101017.3 15.4 17.2
2018-Sep-14 19:00N 54°30' E 010°06'0 0.0 210 / 101017.4 15.5 17.3
2018-Sep-14 18:00N 54°30' E 010°06'0 0.0 210 / 101017.5 15.9 17.3
2018-Sep-14 17:00N 54°30' E 010°06'0 0.0 240 / 151017.7 16.4 17.3
2018-Sep-14 16:00N 54°30' E 010°06'0 0.0 250 / 161017.8 16.7 17.5
2018-Sep-14 15:00N 54°30' E 010°06'0 0.0 250 / 151018.1 17.0 17.5
2018-Sep-14 14:00N 54°30' E 010°06'0 0.0 240 / 191018.4 17.4 17.4
2018-Sep-14 13:00N 54°30' E 010°06'3 3.5 240 / 181018.7 17.0 17.3
2018-Sep-14 12:00N 54°30' E 010°00'3 3.5 230 / 191019.0 16.9 17.3
2018-Sep-14 11:00N 54°30' E 010°06'6 6.0 220 / 211019.2 16.5 17.3
2018-Sep-14 10:00N 54°36' E 010°06'5 9.1 230 / 181019.5 16.2 17.3
2018-Sep-14 09:29N 54°31' E 010°04'5 9.7
2018-Sep-14 09:00N 54°36' E 010°06'711.2 230 / 151019.4 15.2 17.3
2018-Sep-14 08:24N 54°30' E 010°10'2 5.3
2018-Sep-14 08:03N 54°31' E 010°07'123.2
2018-Sep-14 08:00N 54°30' E 010°06'3 7.4 210 / 171019.3 13.9 17.2
2018-Sep-14 07:39N 54°32' E 010°04'0 0.1
2018-Sep-14 07:14N 54°32' E 010°04'310.6
2018-Sep-14 07:00N 54°30' E 010°06'0 0.0 210 / 151019.2 13.7 17.5
2018-Sep-14 06:00N 54°30' E 010°06'0 0.0 220 / 141019.2 13.7 17.5
2018-Sep-14 05:00N 54°30' E 010°06'0 0.0 220 / 151018.9 13.7 17.4
2018-Sep-14 04:00N 54°30' E 010°06'0 0.0 220 / 161019.0 13.2 17.4
2018-Sep-14 03:00N 54°30' E 010°06'0 0.0 220 / 131019.0 12.9 17.3
2018-Sep-14 02:00N 54°30' E 010°06'6 6.0 220 / 141019.4 13.0 17.3
2018-Sep-14 01:00N 54°36' E 010°06'0 0.0 210 / 131019.4 12.7 17.3
2018-Sep-14 00:00N 54°36' E 010°06'412.5 240 / 111019.6 13.2 17.3
2018-Sep-13 23:42N 54°33' E 010°05'1 4.6
2018-Sep-13 23:29N 54°34' E 010°05'3 5.2
2018-Sep-13 23:00N 54°36' E 010°06'3 5.4 240 / 111019.8 13.4 17.3
2018-Sep-13 22:28N 54°33' E 010°06'3 6.1
2018-Sep-13 22:00N 54°36' E 010°06'0 0.6 240 / 131019.7 14.7 17.6
2018-Sep-13 21:12N 54°36' E 010°07'0 2.2
2018-Sep-13 21:00N 54°36' E 010°06'0 0.0 250 / 111020.0 14.2 17.4
2018-Sep-13 20:00N 54°36' E 010°06'0 0.0 250 / 81020.0 14.9 17.6
2018-Sep-13 19:00N 54°36' E 010°06'0 0.0 240 / 91019.8 15.2 17.5
2018-Sep-13 18:00N 54°36' E 010°06'0 0.0 260 / 91019.6 15.5 17.7
2018-Sep-13 17:00N 54°36' E 010°06'0 0.0 270 / 121019.5 16.5 17.7
2018-Sep-13 16:00N 54°36' E 010°06'0 0.0 260 / 121019.5 17.2 17.5
2018-Sep-13 15:00N 54°36' E 010°06'0 0.0 270 / 131019.7 17.4 17.6
2018-Sep-13 14:00N 54°36' E 010°06'0 0.0 250 / 111020.0 17.9 17.6
2018-Sep-13 13:00N 54°36' E 010°06'0 0.0 240 / 91020.4 17.5 17.6
2018-Sep-13 12:00N 54°36' E 010°06'0 0.0 220 / 91020.9 16.7 17.6
2018-Sep-13 11:00N 54°36' E 010°06'0 0.0 210 / 121021.1 15.9 17.5
2018-Sep-13 10:00N 54°36' E 010°06'0 0.0 210 / 111021.4 15.7 17.4
2018-Sep-13 09:00N 54°36' E 010°06'0 0.0 210 / 111021.9 15.0 17.3
2018-Sep-13 08:00N 54°36' E 010°06'5 8.6 210 / 101021.8 13.9 17.2
2018-Sep-13 07:22N 54°31' E 010°02'2 4.5
2018-Sep-13 07:00N 54°30' E 010°00'228.0 220 / 81021.9 13.2 17.4
2018-Sep-13 06:56N 54°31' E 010°02'2 1.9
2018-Sep-13 06:00N 54°30' E 010°00'0 0.0 220 / 81021.8 12.9 17.5
2018-Sep-13 05:00N 54°30' E 010°00'0 0.0 210 / 91021.5 12.0 17.4
2018-Sep-13 04:00N 54°30' E 010°00'7 6.9 220 / 91021.3 12.7 17.3
2018-Sep-13 03:00N 54°36' E 010°06'0 0.0 250 / 81021.2 13.0 17.6
2018-Sep-13 02:00N 54°36' E 010°06'0 0.0 270 / 81021.2 13.2 17.6
2018-Sep-13 01:00N 54°36' E 010°06'0 0.0 280 / 81021.3 13.7 17.6
2018-Sep-13 00:00N 54°36' E 010°06'0 0.0 260 / 101021.4 13.7 17.5
2018-Sep-12 23:00N 54°36' E 010°06'0 0.0 260 / 91021.6 13.9 17.5
2018-Sep-12 22:00N 54°36' E 010°06'0 0.0 260 / 81021.7 13.7 17.6
2018-Sep-12 21:00N 54°36' E 010°06'0 0.0 250 / 101021.3 13.9 17.6
2018-Sep-12 20:00N 54°36' E 010°06'0 0.0 250 / 101021.1 14.7 17.7
2018-Sep-12 19:00N 54°36' E 010°06'0 0.0 250 / 91021.0 14.9 17.7
2018-Sep-12 18:00N 54°36' E 010°06'3 3.5 250 / 101020.6 14.9 17.6
2018-Sep-12 17:00N 54°36' E 010°12'3 3.5 260 / 161020.1 15.4 17.7
2018-Sep-12 16:00N 54°36' E 010°18'1 1.5 260 / 171019.9 15.4 17.9
2018-Sep-12 15:23N 54°36' E 010°19'1 2.2
2018-Sep-12 15:00N 54°36' E 010°18'3 3.5 270 / 151019.9 15.4 17.9
2018-Sep-12 14:00N 54°36' E 010°12'3 3.5 280 / 151019.7 15.5 17.7
2018-Sep-12 13:00N 54°36' E 010°06'0 0.0 270 / 181019.4 14.9 17.8
2018-Sep-12 12:00N 54°36' E 010°06'   280 / 161019.2 14.9 17.8

Dump ship's entire track history